createdAt,value
2023-05-20T00:01:43.715Z,90.36
2023-05-20T00:04:11.638Z,90.37
2023-05-20T00:06:39.724Z,90.38
2023-05-20T00:09:07.953Z,90.40
2023-05-20T00:11:36.391Z,90.40
2023-05-20T00:14:04.334Z,90.43
2023-05-20T00:16:32.383Z,90.44
2023-05-20T00:19:00.497Z,90.45
2023-05-20T00:21:29.739Z,90.46
2023-05-20T00:23:58.530Z,90.50
2023-05-20T00:26:29.260Z,90.54
2023-05-20T00:28:56.991Z,90.56
2023-05-20T00:31:24.933Z,90.58
2023-05-20T00:33:53.350Z,90.58
2023-05-20T00:36:21.731Z,90.57
2023-05-20T00:38:49.675Z,90.58
2023-05-20T00:41:17.409Z,90.59
2023-05-20T00:43:45.463Z,90.60
2023-05-20T00:46:13.982Z,90.61
2023-05-20T00:48:43.977Z,90.65
2023-05-20T00:51:14.409Z,90.68
2023-05-20T00:53:43.665Z,90.70
2023-05-20T00:56:12.589Z,90.74
2023-05-20T00:58:40.777Z,90.75
2023-05-20T01:01:09.163Z,90.76
2023-05-20T01:03:38.254Z,90.77
2023-05-20T01:06:06.301Z,90.81
2023-05-20T01:08:35.774Z,90.84
2023-05-20T01:11:08.241Z,90.86
2023-05-20T01:13:45.788Z,90.88
2023-05-20T01:16:17.492Z,90.92
2023-05-20T01:18:48.762Z,90.93
2023-05-20T01:21:17.577Z,90.93
2023-05-20T01:23:45.998Z,90.93
2023-05-20T01:26:14.907Z,90.93
2023-05-20T01:28:46.221Z,90.94
2023-05-20T01:31:23.946Z,90.93
2023-05-20T01:33:58.378Z,90.89
2023-05-20T01:36:28.658Z,90.85
2023-05-20T01:38:58.525Z,90.80
2023-05-20T01:41:27.425Z,90.80
2023-05-20T01:43:56.185Z,90.85
2023-05-20T01:46:24.039Z,90.96
2023-05-20T01:49:03.020Z,90.92
2023-05-20T01:51:33.725Z,90.90
2023-05-20T01:54:02.118Z,90.99
2023-05-20T01:56:30.921Z,91.05
2023-05-20T01:58:58.886Z,91.02
2023-05-20T02:01:26.742Z,90.96
2023-05-20T02:03:54.639Z,90.99
2023-05-20T02:06:22.799Z,91.06
2023-05-20T02:08:51.064Z,91.10
2023-05-20T02:11:18.841Z,91.06
2023-05-20T02:13:46.620Z,91.02
2023-05-20T02:16:14.514Z,91.04
2023-05-20T02:18:42.739Z,91.08
2023-05-20T02:21:11.296Z,91.10
2023-05-20T02:23:39.709Z,91.12
2023-05-20T02:26:07.504Z,91.15
2023-05-20T02:28:35.221Z,91.23
2023-05-20T02:31:02.986Z,91.27
2023-05-20T02:33:30.986Z,91.27
2023-05-20T02:35:59.381Z,91.21
2023-05-20T02:38:27.643Z,91.16
2023-05-20T02:40:56.965Z,91.14
2023-05-20T02:43:24.922Z,91.16
2023-05-20T02:45:52.940Z,91.15
2023-05-20T02:48:20.933Z,91.19
2023-05-20T02:50:49.219Z,91.23
2023-05-20T02:53:17.583Z,91.26
2023-05-20T02:55:49.972Z,91.29
2023-05-20T02:58:17.731Z,91.35
2023-05-20T03:00:45.730Z,91.36
2023-05-20T03:03:16.701Z,91.33
2023-05-20T03:05:46.139Z,91.29
2023-05-20T03:08:15.102Z,91.29
2023-05-20T03:10:43.042Z,91.34
2023-05-20T03:13:11.722Z,91.37
2023-05-20T03:15:39.752Z,91.37
2023-05-20T03:18:08.854Z,91.39
2023-05-20T03:20:38.440Z,91.42
2023-05-20T03:23:06.810Z,91.45
2023-05-20T03:25:37.838Z,91.51
2023-05-20T03:28:06.836Z,91.54
2023-05-20T03:30:34.737Z,91.56
2023-05-20T03:33:03.364Z,91.57
2023-05-20T03:35:32.055Z,91.61
2023-05-20T03:38:01.878Z,91.58
2023-05-20T03:40:29.979Z,91.54
2023-05-20T03:42:57.719Z,91.60
2023-05-20T03:45:25.766Z,91.57
2023-05-20T03:47:54.094Z,91.56
2023-05-20T03:50:22.363Z,91.56
2023-05-20T03:52:50.174Z,91.53
2023-05-20T03:55:20.658Z,91.53
2023-05-20T03:57:48.599Z,91.59
2023-05-20T04:00:17.154Z,91.59
2023-05-20T04:02:45.902Z,91.55
2023-05-20T04:05:14.565Z,91.56
2023-05-20T04:07:42.398Z,91.57
2023-05-20T04:10:11.573Z,91.60
2023-05-20T04:12:39.548Z,91.57
2023-05-20T04:15:08.195Z,91.62
2023-05-20T04:17:38.502Z,91.64
2023-05-20T04:20:08.281Z,91.59
2023-05-20T04:22:36.297Z,91.51
2023-05-20T04:25:06.689Z,91.38
2023-05-20T04:27:34.443Z,91.34
2023-05-20T04:30:02.680Z,91.38
2023-05-20T04:32:31.498Z,91.37
2023-05-20T04:35:02.209Z,91.35
2023-05-20T04:37:32.150Z,91.23
2023-05-20T04:40:00.077Z,91.21
2023-05-20T04:42:27.977Z,91.27
2023-05-20T04:44:55.820Z,91.31
2023-05-20T04:47:24.281Z,91.29
2023-05-20T04:49:53.107Z,91.25
2023-05-20T04:52:20.822Z,91.24
2023-05-20T04:54:48.572Z,91.19
2023-05-20T04:57:17.425Z,91.09
2023-05-20T04:59:45.913Z,91.10
2023-05-20T05:02:14.977Z,91.07
2023-05-20T05:04:43.471Z,91.02
2023-05-20T05:07:11.307Z,91.01
2023-05-20T05:09:39.397Z,90.98
2023-05-20T05:12:07.916Z,90.98
2023-05-20T05:14:35.962Z,90.94
2023-05-20T05:17:04.342Z,90.91
2023-05-20T05:19:32.502Z,90.89
2023-05-20T05:22:00.248Z,90.79
2023-05-20T05:24:27.994Z,90.63
2023-05-20T05:26:56.493Z,90.47
2023-05-20T05:29:24.359Z,90.38
2023-05-20T05:31:52.243Z,90.24
2023-05-20T05:34:20.703Z,90.14
2023-05-20T05:36:48.433Z,90.02
2023-05-20T05:39:16.369Z,89.93
2023-05-20T05:41:44.809Z,89.85
2023-05-20T05:44:12.685Z,89.74
2023-05-20T05:46:40.531Z,89.66
2023-05-20T05:49:08.857Z,89.55
2023-05-20T05:51:38.882Z,89.47
2023-05-20T05:54:09.587Z,89.37
2023-05-20T05:56:38.093Z,89.34
2023-05-20T05:59:06.091Z,89.26
2023-05-20T06:01:34.326Z,89.17
2023-05-20T06:04:02.654Z,89.11
2023-05-20T06:06:31.542Z,89.02
2023-05-20T06:08:59.450Z,88.91
2023-05-20T06:11:27.801Z,88.87
2023-05-20T06:13:55.918Z,88.80
2023-05-20T06:16:24.299Z,88.73
2023-05-20T06:18:55.978Z,88.71
2023-05-20T06:21:24.331Z,88.71
2023-05-20T06:23:52.089Z,88.67
2023-05-20T06:26:20.355Z,88.56
2023-05-20T06:28:48.119Z,88.53
2023-05-20T06:31:16.108Z,88.62
2023-05-20T06:33:44.476Z,88.52
2023-05-20T06:36:12.541Z,88.39
2023-05-20T06:38:40.286Z,88.17
2023-05-20T06:41:08.819Z,87.95
2023-05-20T06:43:36.585Z,87.78
2023-05-20T06:46:05.064Z,87.59
2023-05-20T06:48:32.936Z,87.36
2023-05-20T06:51:00.845Z,87.22
2023-05-20T06:53:28.781Z,87.04
2023-05-20T06:55:57.215Z,86.79
2023-05-20T06:58:24.981Z,86.61
2023-05-20T07:00:53.264Z,86.47
2023-05-20T07:03:21.108Z,86.38
2023-05-20T07:05:48.898Z,86.18
2023-05-20T07:08:17.229Z,86.07
2023-05-20T07:10:46.652Z,85.93
2023-05-20T07:13:14.461Z,85.67
2023-05-20T07:15:42.828Z,85.74
2023-05-20T07:18:10.665Z,85.68
2023-05-20T07:20:38.646Z,85.48
2023-05-20T07:23:06.778Z,85.24
2023-05-20T07:25:34.763Z,85.40
2023-05-20T07:28:02.797Z,85.20
2023-05-20T07:30:31.033Z,83.57
2023-05-20T07:32:58.806Z,84.19
2023-05-20T07:35:27.147Z,83.86
2023-05-20T07:37:54.946Z,84.07
2023-05-20T07:40:22.741Z,84.14
2023-05-20T07:42:50.607Z,84.10
2023-05-20T07:45:19.004Z,82.64
2023-05-20T07:47:47.335Z,82.98
2023-05-20T07:50:15.604Z,82.84
2023-05-20T07:52:55.224Z,83.25
2023-05-20T07:55:24.671Z,83.54
2023-05-20T07:57:53.101Z,83.49
2023-05-20T08:00:21.117Z,83.29
2023-05-20T08:02:49.005Z,82.89
2023-05-20T08:05:17.112Z,82.57
2023-05-20T08:07:45.557Z,82.18
2023-05-20T08:10:13.795Z,81.85
2023-05-20T08:12:41.990Z,81.36
2023-05-20T08:15:10.224Z,81.02
2023-05-20T08:17:38.969Z,80.55
2023-05-20T08:20:08.318Z,80.80
2023-05-20T08:22:37.808Z,80.81
2023-05-20T08:25:09.306Z,80.85
2023-05-20T08:27:37.868Z,80.61
2023-05-20T08:30:08.257Z,80.76
2023-05-20T08:32:37.687Z,80.57
2023-05-20T08:35:09.472Z,80.43
2023-05-20T08:37:37.222Z,80.41
2023-05-20T08:40:06.716Z,79.55
2023-05-20T08:42:34.478Z,79.55
2023-05-20T08:45:03.137Z,79.66
2023-05-20T08:47:31.825Z,79.55
2023-05-20T08:50:00.079Z,79.20
2023-05-20T08:52:31.836Z,79.31
2023-05-20T08:55:00.159Z,79.19
2023-05-20T08:57:29.241Z,78.61
2023-05-20T08:59:57.804Z,78.00
2023-05-20T09:02:26.038Z,78.53
2023-05-20T09:04:54.349Z,78.38
2023-05-20T09:07:29.197Z,78.17
2023-05-20T09:09:58.596Z,78.22
2023-05-20T09:12:26.343Z,77.01
2023-05-20T09:14:54.258Z,77.37
2023-05-20T09:17:24.465Z,77.09
2023-05-20T09:19:56.382Z,75.49
2023-05-20T09:22:29.031Z,76.47
2023-05-20T09:24:56.853Z,76.54
2023-05-20T09:27:24.952Z,75.08
2023-05-20T09:29:53.221Z,76.34
2023-05-20T09:32:24.438Z,76.13
2023-05-20T09:34:52.387Z,76.51
2023-05-20T09:37:22.183Z,76.84
2023-05-20T09:39:59.870Z,76.50
2023-05-20T09:42:41.789Z,76.95
2023-05-20T09:45:10.107Z,76.65
2023-05-20T09:47:41.628Z,75.87
2023-05-20T09:50:10.088Z,76.17
2023-05-20T09:52:39.802Z,76.25
2023-05-20T09:55:12.776Z,77.08
2023-05-20T09:57:40.569Z,76.99
2023-05-20T10:00:08.851Z,76.82
2023-05-20T10:02:36.925Z,76.52
2023-05-20T10:05:11.287Z,75.91
2023-05-20T10:07:58.329Z,75.46
2023-05-20T10:10:51.206Z,74.91
2023-05-20T10:13:34.205Z,74.91
2023-05-20T10:16:24.577Z,75.52
2023-05-20T10:19:23.933Z,75.66
2023-05-20T10:22:06.150Z,75.77
2023-05-20T10:24:40.940Z,75.73
2023-05-20T10:27:12.882Z,75.82
2023-05-20T10:29:52.214Z,75.14
2023-05-20T10:32:26.756Z,75.06
2023-05-20T10:35:00.208Z,75.69
2023-05-20T10:37:30.664Z,75.69
2023-05-20T10:40:11.577Z,75.48
2023-05-20T10:42:40.150Z,75.93
2023-05-20T10:45:08.762Z,76.15
2023-05-20T10:47:42.091Z,76.36
2023-05-20T10:50:28.042Z,76.39
2023-05-20T10:53:04.394Z,76.12
2023-05-20T10:55:40.275Z,76.08
2023-05-20T10:58:10.072Z,76.39
2023-05-20T11:00:38.418Z,76.36
2023-05-20T11:03:07.554Z,76.43
2023-05-20T11:05:36.456Z,76.23
2023-05-20T11:08:16.929Z,76.43
2023-05-20T11:10:56.863Z,75.70
2023-05-20T11:13:26.810Z,76.33
2023-05-20T11:15:55.647Z,75.54
2023-05-20T11:18:23.516Z,76.20
2023-05-20T11:20:51.490Z,76.31
2023-05-20T11:23:19.700Z,75.92
2023-05-20T11:25:47.471Z,76.00
2023-05-20T11:28:16.620Z,75.91
2023-05-20T11:30:44.552Z,75.63
2023-05-20T11:33:13.970Z,75.27
2023-05-20T11:35:47.378Z,74.87
2023-05-20T11:38:16.137Z,75.22
2023-05-20T11:40:50.948Z,75.35
2023-05-20T11:43:20.829Z,75.41
2023-05-20T11:45:55.412Z,75.10
2023-05-20T11:48:24.702Z,75.04
2023-05-20T11:50:54.936Z,75.27
2023-05-20T11:53:24.130Z,74.88
2023-05-20T11:56:02.391Z,74.72
2023-05-20T11:58:31.383Z,74.98
2023-05-20T12:01:09.664Z,74.74
2023-05-20T12:03:47.761Z,74.78
2023-05-20T12:06:17.885Z,75.11
2023-05-20T12:08:46.664Z,75.10
2023-05-20T12:11:14.454Z,75.19
2023-05-20T12:13:42.309Z,74.88
2023-05-20T12:16:10.697Z,74.86
2023-05-20T12:18:38.982Z,74.64
2023-05-20T12:21:07.313Z,73.91
2023-05-20T12:23:35.147Z,73.64
2023-05-20T12:26:03.293Z,73.51
2023-05-20T12:28:32.259Z,73.48
2023-05-20T12:31:01.044Z,73.23
2023-05-20T12:33:29.427Z,73.49
2023-05-20T12:35:57.461Z,72.91
2023-05-20T12:38:25.284Z,72.78
2023-05-20T12:40:53.016Z,72.61
2023-05-20T12:43:20.722Z,72.32
2023-05-20T12:45:48.878Z,72.23
2023-05-20T12:48:17.126Z,72.30
2023-05-20T12:50:44.963Z,70.99
2023-05-20T12:53:12.793Z,70.17
2023-05-20T12:55:40.962Z,70.70
2023-05-20T12:58:11.520Z,70.79
2023-05-20T13:00:39.731Z,71.00
2023-05-20T13:03:08.133Z,70.97
2023-05-20T13:05:36.112Z,70.73
2023-05-20T13:08:04.182Z,69.66
2023-05-20T13:10:31.994Z,70.29
2023-05-20T13:12:59.928Z,70.25
2023-05-20T13:15:28.397Z,70.03
2023-05-20T13:17:57.585Z,69.55
2023-05-20T13:20:25.952Z,69.33
2023-05-20T13:22:53.799Z,69.22
2023-05-20T13:25:21.746Z,69.09
2023-05-20T13:27:49.590Z,69.20
2023-05-20T13:30:17.861Z,69.94
2023-05-20T13:32:46.383Z,69.67
2023-05-20T13:55:16.292Z,68.50
2023-05-20T13:57:44.129Z,68.58
2023-05-20T14:00:12.640Z,67.97
2023-05-20T14:02:40.437Z,67.50
2023-05-20T14:05:08.411Z,67.60
2023-05-20T14:07:36.908Z,67.72
2023-05-20T14:10:06.912Z,67.76
2023-05-20T14:12:34.673Z,67.62
2023-05-20T14:15:02.407Z,67.61
2023-05-20T14:17:30.240Z,67.68
2023-05-20T14:19:57.935Z,67.87
2023-05-20T14:22:26.255Z,67.90
2023-05-20T14:24:54.475Z,67.75
2023-05-20T14:27:22.179Z,67.40
2023-05-20T14:29:49.894Z,66.20
2023-05-20T14:32:17.715Z,65.74
2023-05-20T14:34:45.878Z,65.53
2023-05-20T14:37:15.560Z,64.98
2023-05-20T14:39:43.762Z,65.11
2023-05-20T14:42:12.097Z,65.30
2023-05-20T14:44:39.822Z,65.80
2023-05-20T14:47:07.807Z,66.22
2023-05-20T14:49:39.203Z,66.36
2023-05-20T14:52:07.715Z,66.74
2023-05-20T14:54:35.681Z,67.12
2023-05-20T14:57:06.378Z,67.40
2023-05-20T14:59:34.261Z,67.80
2023-05-20T15:02:02.224Z,68.12
2023-05-20T15:04:30.627Z,68.31
2023-05-20T15:06:58.960Z,68.55
2023-05-20T15:09:26.937Z,69.14
2023-05-20T15:11:54.723Z,69.37
2023-05-20T15:14:22.453Z,69.66
2023-05-20T15:16:50.222Z,70.01
2023-05-20T15:19:18.441Z,70.26
2023-05-20T15:21:47.063Z,70.29
2023-05-20T15:24:17.412Z,70.61
2023-05-20T15:26:48.444Z,70.89
2023-05-20T16:08:08.648Z,70.30
2023-05-20T16:10:37.225Z,70.03
2023-05-20T16:13:05.108Z,69.52
2023-05-20T16:15:36.610Z,69.01
2023-05-20T16:18:05.147Z,68.54
2023-05-20T16:20:32.949Z,67.90
2023-05-20T16:23:01.705Z,67.61
2023-05-20T16:25:29.912Z,67.46
2023-05-20T16:27:58.453Z,67.02
2023-05-20T16:30:26.547Z,66.82
2023-05-20T16:32:54.373Z,66.70
2023-05-20T16:35:22.087Z,66.30
2023-05-20T16:37:50.452Z,66.35
2023-05-20T16:40:18.860Z,66.43
2023-05-20T16:42:46.565Z,66.50
2023-05-20T16:45:14.354Z,66.56
2023-05-20T16:47:42.235Z,66.26
2023-05-20T16:50:10.244Z,66.29
2023-05-20T16:52:38.798Z,66.44
2023-05-20T16:55:08.557Z,65.66
2023-05-20T16:57:36.388Z,66.59
2023-05-20T17:00:11.570Z,67.02
2023-05-20T17:02:40.000Z,67.51
2023-05-20T17:05:08.639Z,67.74
2023-05-20T17:07:36.428Z,67.68
2023-05-20T17:10:04.629Z,67.85
2023-05-20T17:12:32.477Z,67.67
2023-05-20T17:15:00.454Z,66.68
2023-05-20T17:17:28.621Z,66.90
2023-05-20T17:19:56.390Z,66.40
2023-05-20T17:22:24.212Z,64.84
2023-05-20T17:24:51.919Z,65.18
2023-05-20T17:27:19.641Z,64.39
2023-05-20T17:29:48.673Z,63.58
2023-05-20T17:32:16.869Z,63.46
2023-05-20T17:34:44.575Z,62.92
2023-05-20T17:37:12.289Z,63.37
2023-05-20T17:39:42.292Z,64.05
2023-05-20T17:42:10.877Z,64.42
2023-05-20T17:44:38.637Z,64.38
2023-05-20T17:47:06.922Z,65.06
2023-05-20T17:49:34.644Z,65.70
2023-05-20T17:52:02.473Z,66.51
2023-05-20T17:54:30.546Z,67.12
2023-05-20T17:56:58.597Z,67.89
2023-05-20T17:59:26.446Z,68.43
2023-05-20T18:01:54.735Z,68.97
2023-05-20T18:04:22.736Z,69.73
2023-05-20T18:06:50.610Z,70.25
2023-05-20T18:09:18.761Z,70.57
2023-05-20T18:11:46.527Z,71.16
2023-05-20T18:14:14.235Z,71.89
2023-05-20T18:16:42.429Z,72.42
2023-05-20T18:19:10.174Z,72.85
2023-05-20T18:21:38.192Z,73.41
2023-05-20T18:24:06.364Z,73.64
2023-05-20T18:26:34.099Z,73.35
2023-05-20T18:29:01.891Z,73.45
2023-05-20T18:31:30.989Z,73.69
2023-05-20T18:33:58.788Z,74.12
2023-05-20T18:36:27.588Z,74.33
2023-05-20T18:38:55.510Z,74.65
2023-05-20T18:41:27.063Z,74.74
2023-05-20T18:44:00.071Z,75.33
2023-05-20T18:46:28.272Z,75.31
2023-05-20T18:48:56.273Z,75.48
2023-05-20T18:51:25.917Z,75.82
2023-05-20T18:53:53.598Z,76.13
2023-05-20T18:56:21.629Z,76.39
2023-05-20T18:58:49.350Z,76.68
2023-05-20T19:01:17.565Z,76.99
2023-05-20T19:03:45.711Z,77.10
2023-05-20T19:06:14.138Z,77.13
2023-05-20T19:08:42.807Z,77.49
2023-05-20T19:11:10.501Z,77.58
2023-05-20T19:13:38.628Z,77.67
2023-05-20T19:16:07.406Z,77.77
2023-05-20T19:18:35.178Z,77.98
2023-05-20T19:21:03.003Z,78.12
2023-05-20T19:23:30.698Z,78.52
2023-05-20T19:25:58.409Z,78.84
2023-05-20T19:28:26.746Z,79.18
2023-05-20T19:30:54.979Z,79.25
2023-05-20T19:33:22.725Z,79.44
2023-05-20T19:35:50.606Z,79.58
2023-05-20T19:38:18.469Z,79.59
2023-05-20T19:40:47.862Z,79.69
2023-05-20T19:43:16.238Z,79.78
2023-05-20T19:45:44.381Z,79.88
2023-05-20T19:48:12.158Z,79.95
2023-05-20T19:50:40.496Z,80.97
2023-05-20T19:53:08.211Z,80.88
2023-05-20T19:55:36.718Z,80.53
2023-05-20T19:58:04.811Z,80.83
2023-05-20T20:00:32.951Z,80.93
2023-05-20T20:03:03.333Z,80.96
2023-05-20T20:05:31.257Z,81.13
2023-05-20T20:07:59.127Z,81.22
2023-05-20T20:10:30.815Z,81.75
2023-05-20T20:12:58.967Z,82.00
2023-05-20T20:15:28.161Z,82.06
2023-05-20T20:17:55.975Z,82.05
2023-05-20T20:20:24.957Z,82.45
2023-05-20T20:22:52.728Z,82.85
2023-05-20T20:25:20.744Z,83.37
2023-05-20T20:27:50.558Z,83.70
2023-05-20T20:30:21.514Z,83.42
2023-05-20T20:32:49.307Z,83.45
2023-05-20T20:35:17.235Z,83.44
2023-05-20T20:37:45.260Z,83.43
2023-05-20T20:40:16.474Z,83.42
2023-05-20T20:42:45.401Z,83.60
2023-05-20T20:45:15.205Z,83.67
2023-05-20T20:47:44.126Z,83.80
2023-05-20T20:50:11.899Z,83.72
2023-05-20T20:52:39.977Z,83.76
2023-05-20T20:55:08.010Z,83.78
2023-05-20T20:57:37.009Z,83.79
2023-05-20T21:00:23.467Z,83.86
2023-05-20T21:02:52.026Z,83.92
2023-05-20T21:05:21.472Z,83.97
2023-05-20T21:07:52.746Z,84.01
2023-05-20T21:10:21.291Z,84.08
2023-05-20T21:12:49.471Z,84.10
2023-05-20T21:15:17.366Z,84.09
2023-05-20T21:17:45.963Z,84.12
2023-05-20T21:20:15.272Z,84.07
2023-05-20T21:22:43.708Z,84.05
2023-05-20T21:25:13.162Z,84.02
2023-05-20T21:27:41.651Z,84.13
2023-05-20T21:30:11.606Z,84.20
2023-05-20T21:32:45.550Z,84.24
2023-05-20T21:35:13.907Z,84.28
2023-05-20T21:37:42.071Z,84.32
2023-05-20T21:40:10.119Z,84.48
2023-05-20T21:42:37.993Z,84.49
2023-05-20T21:45:06.638Z,84.45
2023-05-20T21:47:34.371Z,84.52
2023-05-20T21:50:03.631Z,84.59
2023-05-20T21:52:31.859Z,84.68
2023-05-20T21:54:59.569Z,84.72
2023-05-20T21:57:27.471Z,84.87
2023-05-20T21:59:55.280Z,84.90
2023-05-20T22:02:23.664Z,84.87
2023-05-20T22:04:51.948Z,84.77
2023-05-20T22:07:19.622Z,84.74
2023-05-20T22:09:47.326Z,84.90
2023-05-20T22:12:15.665Z,85.04
2023-05-20T22:14:43.402Z,85.07
2023-05-20T22:17:11.704Z,85.19
2023-05-20T22:19:40.262Z,85.19
2023-05-20T22:22:07.977Z,85.19
2023-05-20T22:24:35.891Z,85.15
2023-05-20T22:27:04.033Z,85.30
2023-05-20T22:29:32.575Z,85.35
2023-05-20T22:32:00.985Z,85.29
2023-05-20T22:34:29.029Z,85.15
2023-05-20T22:36:58.229Z,85.25
2023-05-20T22:39:25.947Z,85.32
2023-05-20T22:41:53.667Z,85.43
2023-05-20T22:44:21.504Z,85.39
2023-05-20T22:46:49.681Z,85.33
2023-05-20T22:49:18.735Z,85.27
2023-05-20T22:51:46.419Z,85.21
2023-05-20T22:54:14.094Z,85.14
2023-05-20T22:56:42.139Z,85.08
2023-05-20T22:59:09.933Z,85.05
2023-05-20T23:01:38.220Z,84.95
2023-05-20T23:04:06.085Z,84.80
2023-05-20T23:06:33.788Z,84.70
2023-05-20T23:09:01.760Z,84.61
2023-05-20T23:11:29.460Z,84.59
2023-05-20T23:13:57.748Z,84.53
2023-05-20T23:16:26.480Z,84.51
2023-05-20T23:18:54.179Z,84.49
2023-05-20T23:21:22.193Z,84.49
2023-05-20T23:23:49.944Z,84.51
2023-05-20T23:26:18.189Z,84.52
2023-05-20T23:28:46.250Z,84.50
2023-05-20T23:31:14.878Z,84.47
2023-05-20T23:33:42.598Z,84.50
2023-05-20T23:36:10.346Z,84.48
2023-05-20T23:38:38.662Z,84.52
2023-05-20T23:41:07.019Z,84.55
2023-05-20T23:43:34.697Z,84.52
2023-05-20T23:46:02.669Z,84.48
2023-05-20T23:48:30.333Z,84.45
2023-05-20T23:50:58.231Z,84.44
2023-05-20T23:53:25.974Z,84.43
2023-05-20T23:55:54.122Z,84.53
2023-05-20T23:58:22.272Z,84.53
